Bethel Airport
PABE : rendu visible

Aérodrome :











RETROUVEZ-NOUS SUR...

 
LOGIN :

S'inscrire | Disclaimer

   EN    FR    IT 

 









Légende :    VFR   VFR Marginal   IFR   IFR Intensif   IFR Très Intensif
Visi : 
Plafond : 
>= 8 km
>= 3000ft
5 à 8 km
1000 à 3000 ft
1500m à 5 km
500 à 1000 ft
800 à 1500m
200 à 500 ft
< 800m
< 200 ft
Symboles :   Orages  Brouillard  Fortes neiges  Fortes précipitations  Vent > 20 kt






- Altitude de l'aérodrome : 126 ft
- Code IATA : BET


PABE - Bethel

DERNIER METAR :
  • 060953Z 21005KT 10SM OVC031 06/06 A3002 RMK AO2 SLP168 T00610061

METARs EXPIRÉS :
  • 060853Z 21003KT 10SM FEW015 OVC033 06/06 A3002 RMK AO2 SLP169 T00610056 400940061 55000
  • 060803Z 22006KT 10SM FEW008 SCT020 OVC031 07/06 A3002 RMK AO2 T00670061
  • 060753Z 22006KT 10SM SCT008 BKN020 OVC031 07/06 A3002 RMK AO2 SLP168 T00670061

TAF PABE
Valide du 06 à 06h jusqu'au 07 à 06h UTC


060530Z 0606/0706 VRB06KT P6SM OVC025
FM061200 VRB06KT P6SM OVC015
FM070000 28007KT P6SM BKN050
FIR PAZA / Amérique du Nord



MET'MAP, la Météo Aéronautique d'un coup d'oeil ! - Copyright ORBIFLY Décembre 2007 - Disclaimer

ORBIFLY MET'MAP TEAM :

Programmation & Développement : Alexandra Zaïnal
Sur une idée originale de : Baudouin d'Aumeries
Assistance à la programmation : Marc-Olivier Méhu
Soutien technique & logistique : Manuel Goepfert

Contact : metmap@orbifly.com




SOURCES & CREDITS :

   NOAA       Earth
Advisory